createdAt,value
2018-03-24T00:00:03.293Z,46.83
2018-03-24T00:02:30.750Z,41.90
2018-03-24T00:04:58.216Z,45.93
2018-03-24T00:07:25.709Z,48.03
2018-03-24T00:09:53.201Z,47.67
2018-03-24T00:12:20.705Z,54.57
2018-03-24T00:14:48.258Z,46.10
2018-03-24T00:17:15.743Z,52.40
2018-03-24T00:19:43.211Z,48.40
2018-03-24T00:22:10.753Z,47.57
2018-03-24T00:24:38.216Z,48.73
2018-03-24T00:27:06.356Z,49.50
2018-03-24T00:29:33.845Z,48.87
2018-03-24T00:32:01.355Z,44.10
2018-03-24T00:34:28.897Z,54.00
2018-03-24T00:36:56.352Z,47.33
2018-03-24T00:39:23.844Z,49.23
2018-03-24T00:41:51.332Z,48.83
2018-03-24T00:44:18.853Z,47.03
2018-03-24T00:46:46.381Z,47.90
2018-03-24T00:49:14.774Z,52.93
2018-03-24T00:51:42.604Z,49.90
2018-03-24T00:54:10.711Z,47.90
2018-03-24T00:56:38.264Z,47.10
2018-03-24T00:59:06.314Z,50.57
2018-03-24T01:01:34.439Z,48.67
2018-03-24T01:04:01.931Z,48.77
2018-03-24T01:06:30.307Z,50.70
2018-03-24T01:08:57.862Z,55.57
2018-03-24T01:11:27.694Z,51.23
2018-03-24T01:13:55.185Z,54.27
2018-03-24T01:16:22.648Z,53.93
2018-03-24T01:18:50.118Z,55.77
2018-03-24T01:21:17.595Z,52.17
2018-03-24T01:23:45.052Z,54.80
2018-03-24T01:26:12.554Z,53.30
2018-03-24T01:28:40.877Z,57.30
2018-03-24T01:31:08.429Z,52.00
2018-03-24T01:33:35.901Z,56.30
2018-03-24T01:36:03.367Z,61.90
2018-03-24T01:38:30.844Z,55.83
2018-03-24T01:40:58.344Z,53.93
2018-03-24T01:43:25.797Z,56.60
2018-03-24T01:45:53.260Z,63.83
2018-03-24T01:48:20.752Z,60.60
2018-03-24T01:50:48.223Z,58.70
2018-03-24T01:53:15.721Z,62.47
2018-03-24T01:55:43.193Z,57.53
2018-03-24T01:58:10.661Z,62.80
2018-03-24T02:00:38.140Z,56.00
2018-03-24T02:03:05.671Z,60.60
2018-03-24T02:05:33.164Z,58.33
2018-03-24T02:08:00.629Z,56.90
2018-03-24T02:10:28.152Z,63.70
2018-03-24T02:12:55.629Z,59.70
2018-03-24T02:15:23.088Z,58.67
2018-03-24T02:17:50.546Z,68.17
2018-03-24T02:20:18.024Z,68.07
2018-03-24T02:22:45.495Z,77.10
2018-03-24T02:25:23.748Z,75.47
2018-03-24T02:27:51.212Z,78.30
2018-03-24T02:30:18.672Z,77.23
2018-03-24T02:32:46.221Z,75.20
2018-03-24T02:35:13.795Z,85.80
2018-03-24T02:37:41.279Z,95.80
2018-03-24T02:40:08.762Z,79.67
2018-03-24T02:42:36.296Z,83.77
2018-03-24T02:45:03.764Z,88.83
2018-03-24T02:47:31.234Z,92.47
2018-03-24T02:49:58.702Z,78.77
2018-03-24T02:52:26.189Z,79.50
2018-03-24T02:54:53.671Z,78.40
2018-03-24T02:57:21.171Z,79.03
2018-03-24T02:59:48.639Z,93.80
2018-03-24T03:02:16.123Z,90.87
2018-03-24T03:04:43.596Z,81.30
2018-03-24T03:07:11.080Z,85.23
2018-03-24T03:09:38.556Z,93.80
2018-03-24T03:12:06.007Z,91.60
2018-03-24T03:14:33.533Z,92.70
2018-03-24T03:17:00.991Z,87.63
2018-03-24T03:19:28.464Z,89.93
2018-03-24T03:21:56.008Z,93.70
2018-03-24T03:24:23.484Z,96.67
2018-03-24T03:26:50.921Z,86.47
2018-03-24T03:29:18.424Z,83.40
2018-03-24T03:31:50.448Z,98.33
2018-03-24T03:34:17.960Z,89.00
2018-03-24T03:36:45.443Z,97.57
2018-03-24T03:39:12.901Z,96.73
2018-03-24T03:41:40.363Z,104.97
2018-03-24T03:44:07.838Z,108.80
2018-03-24T03:46:35.363Z,92.53
2018-03-24T03:49:02.839Z,100.73
2018-03-24T03:51:30.308Z,108.30
2018-03-24T03:53:57.773Z,104.60
2018-03-24T03:56:25.248Z,95.83
2018-03-24T03:58:52.717Z,105.37
2018-03-24T04:01:20.246Z,96.77
2018-03-24T04:03:47.734Z,103.50
2018-03-24T04:06:15.376Z,103.70
2018-03-24T04:08:42.883Z,108.87
2018-03-24T04:11:10.326Z,99.70
2018-03-24T04:13:37.979Z,103.23
2018-03-24T04:16:05.638Z,91.90
2018-03-24T04:18:33.141Z,95.13
2018-03-24T04:21:00.557Z,97.40
2018-03-24T04:23:29.447Z,94.03
2018-03-24T04:25:56.925Z,103.90
2018-03-24T04:28:24.378Z,96.33
2018-03-24T04:30:51.856Z,100.53
2018-03-24T04:33:19.297Z,92.17
2018-03-24T04:35:46.785Z,88.63
2018-03-24T04:38:14.267Z,93.40
2018-03-24T04:40:41.722Z,107.87
2018-03-24T04:43:09.186Z,100.20
2018-03-24T04:45:36.639Z,105.80
2018-03-24T04:48:04.105Z,109.77
2018-03-24T04:50:31.571Z,99.90
2018-03-24T04:52:59.016Z,96.00
2018-03-24T04:55:26.494Z,103.23
2018-03-24T04:57:54.054Z,99.37
2018-03-24T05:00:21.511Z,84.37
2018-03-24T05:02:49.016Z,94.00
2018-03-24T05:05:16.516Z,99.03
2018-03-24T05:07:43.971Z,91.60
2018-03-24T05:10:11.468Z,111.23
2018-03-24T05:12:38.941Z,91.77
2018-03-24T05:15:06.616Z,92.00
2018-03-24T05:17:34.060Z,93.37
2018-03-24T05:20:01.523Z,99.67
2018-03-24T05:22:29.013Z,91.10
2018-03-24T05:24:56.478Z,93.27
2018-03-24T05:27:23.915Z,91.90
2018-03-24T05:29:51.418Z,100.57
2018-03-24T05:32:18.872Z,95.13
2018-03-24T05:34:46.536Z,94.67
2018-03-24T05:37:14.018Z,92.67
2018-03-24T05:39:41.520Z,100.00
2018-03-24T05:42:08.984Z,82.77
2018-03-24T05:44:36.450Z,97.30
2018-03-24T05:47:03.958Z,103.83
2018-03-24T05:49:31.422Z,97.33
2018-03-24T05:51:58.895Z,103.77
2018-03-24T05:54:26.377Z,107.43
2018-03-24T05:56:54.772Z,104.53
2018-03-24T05:59:22.222Z,110.73
2018-03-24T06:01:49.707Z,102.60
2018-03-24T06:04:17.233Z,111.13
2018-03-24T06:06:44.731Z,105.33
2018-03-24T06:09:12.196Z,100.87
2018-03-24T06:11:40.599Z,115.60
2018-03-24T06:14:08.111Z,112.47
2018-03-24T06:16:35.588Z,100.80
2018-03-24T06:19:03.082Z,108.73
2018-03-24T06:21:30.615Z,112.30
2018-03-24T06:23:58.275Z,105.87
2018-03-24T06:26:25.769Z,116.23
2018-03-24T06:28:53.300Z,109.50
2018-03-24T06:31:20.784Z,119.33
2018-03-24T06:33:48.292Z,120.93
2018-03-24T06:36:16.282Z,122.30
2018-03-24T06:38:43.790Z,110.60
2018-03-24T06:41:11.274Z,123.97
2018-03-24T06:43:39.256Z,112.50
2018-03-24T06:46:06.723Z,113.87
2018-03-24T06:48:34.278Z,120.73
2018-03-24T06:51:01.816Z,113.63
2018-03-24T06:53:29.270Z,114.07
2018-03-24T06:55:58.391Z,183.03
2018-03-24T06:58:25.888Z,169.20
2018-03-24T07:00:53.380Z,151.37
2018-03-24T07:03:20.870Z,114.83
2018-03-24T07:05:48.327Z,119.80
2018-03-24T07:08:15.826Z,113.97
2018-03-24T07:10:43.288Z,117.27
2018-03-24T07:13:10.764Z,121.60
2018-03-24T07:15:38.237Z,126.67
2018-03-24T07:18:05.757Z,111.47
2018-03-24T07:20:33.310Z,107.77
2018-03-24T07:23:01.131Z,127.70
2018-03-24T07:25:28.600Z,120.30
2018-03-24T07:27:56.128Z,125.40
2018-03-24T07:30:23.623Z,124.60
2018-03-24T07:32:51.091Z,118.03
2018-03-24T07:35:18.617Z,119.93
2018-03-24T07:37:46.094Z,112.97
2018-03-24T07:40:13.573Z,132.03
2018-03-24T07:42:41.096Z,114.83
2018-03-24T07:45:08.616Z,129.20
2018-03-24T07:47:36.243Z,116.20
2018-03-24T07:50:03.720Z,132.83
2018-03-24T07:52:31.183Z,128.07
2018-03-24T07:54:58.688Z,126.03
2018-03-24T07:57:27.476Z,121.70
2018-03-24T07:59:55.082Z,123.03
2018-03-24T08:02:22.599Z,124.70
2018-03-24T08:04:50.065Z,116.07
2018-03-24T08:07:17.602Z,131.23
2018-03-24T08:09:45.129Z,116.60
2018-03-24T08:12:12.580Z,139.03
2018-03-24T08:14:40.123Z,118.03
2018-03-24T08:17:07.745Z,145.97
2018-03-24T08:19:35.671Z,127.80
2018-03-24T08:22:03.175Z,118.57
2018-03-24T08:24:30.942Z,117.10
2018-03-24T08:26:59.629Z,118.53
2018-03-24T08:29:27.158Z,124.50
2018-03-24T08:31:54.652Z,120.73
2018-03-24T08:34:22.168Z,141.83
2018-03-24T08:36:49.648Z,116.80
2018-03-24T08:39:17.198Z,114.37
2018-03-24T08:41:44.766Z,115.50
2018-03-24T08:44:12.293Z,113.03
2018-03-24T08:46:39.928Z,101.30
2018-03-24T08:49:07.436Z,95.97
2018-03-24T08:51:35.025Z,106.17
2018-03-24T08:54:02.478Z,96.23
2018-03-24T08:56:29.967Z,102.40
2018-03-24T08:58:57.628Z,101.83
2018-03-24T09:01:25.197Z,96.30
2018-03-24T09:03:52.799Z,93.43
2018-03-24T09:06:20.289Z,112.13
2018-03-24T09:08:47.827Z,102.87
2018-03-24T09:11:15.329Z,105.67
2018-03-24T09:13:42.842Z,98.57
2018-03-24T09:16:10.425Z,92.67
2018-03-24T09:18:37.906Z,84.30
2018-03-24T09:21:05.415Z,82.23
2018-03-24T09:23:32.930Z,93.70
2018-03-24T09:26:00.444Z,88.70
2018-03-24T09:28:27.968Z,95.97
2018-03-24T09:30:55.483Z,88.93
2018-03-24T09:33:22.965Z,83.37
2018-03-24T09:35:50.435Z,72.30
2018-03-24T09:38:17.941Z,57.00
2018-03-24T09:40:45.431Z,64.73
2018-03-24T09:43:12.951Z,65.80
2018-03-24T09:45:40.414Z,64.53
2018-03-24T09:48:07.922Z,62.60
2018-03-24T09:50:35.414Z,58.30
2018-03-24T09:53:02.871Z,61.20
2018-03-24T09:55:30.353Z,59.03
2018-03-24T09:57:57.855Z,51.77
2018-03-24T10:00:25.321Z,55.67
2018-03-24T10:02:52.872Z,57.27
2018-03-24T10:05:20.332Z,58.10
2018-03-24T10:07:47.819Z,52.97
2018-03-24T10:10:15.337Z,60.67
2018-03-24T10:12:42.839Z,54.80
2018-03-24T10:15:11.072Z,56.17
2018-03-24T10:17:38.563Z,56.53
2018-03-24T10:20:06.115Z,59.03
2018-03-24T10:22:55.086Z,50.47
2018-03-24T10:25:22.595Z,59.27
2018-03-24T10:27:50.151Z,51.20
2018-03-24T10:30:17.626Z,54.63
2018-03-24T10:32:45.155Z,52.90
2018-03-24T10:35:12.633Z,43.63
2018-03-24T10:37:45.587Z,53.20
2018-03-24T10:40:13.213Z,49.97
2018-03-24T10:42:40.721Z,46.07
2018-03-24T10:45:08.792Z,50.63
2018-03-24T10:47:36.270Z,53.53
2018-03-24T10:50:03.767Z,50.83
2018-03-24T10:52:31.254Z,53.87
2018-03-24T10:54:59.469Z,49.83
2018-03-24T10:57:27.844Z,52.43
2018-03-24T10:59:55.306Z,46.83
2018-03-24T11:02:22.780Z,43.70
2018-03-24T11:04:50.295Z,43.87
2018-03-24T11:07:17.783Z,48.17
2018-03-24T11:09:45.254Z,42.70
2018-03-24T11:12:12.746Z,48.03
2018-03-24T11:14:40.260Z,39.57
2018-03-24T11:17:07.759Z,42.80
2018-03-24T11:19:35.239Z,41.37
2018-03-24T11:22:02.717Z,33.60
2018-03-24T11:24:30.279Z,41.80
2018-03-24T11:26:58.643Z,44.13
2018-03-24T11:29:26.114Z,36.17
2018-03-24T11:31:53.594Z,32.93
2018-03-24T11:34:21.141Z,29.90
2018-03-24T11:36:49.190Z,31.37
2018-03-24T11:39:16.712Z,28.70
2018-03-24T11:41:44.260Z,41.87
2018-03-24T11:44:11.727Z,26.30
2018-03-24T11:46:39.257Z,26.17
2018-03-24T11:49:07.011Z,27.23
2018-03-24T11:51:34.475Z,25.43
2018-03-24T11:54:02.014Z,21.77
2018-03-24T11:56:29.497Z,24.17
2018-03-24T11:58:57.083Z,25.40
2018-03-24T12:01:25.706Z,22.60
2018-03-24T12:03:53.176Z,24.30
2018-03-24T12:06:20.637Z,21.03
2018-03-24T12:08:48.155Z,20.70
2018-03-24T12:11:15.619Z,22.37
2018-03-24T12:13:43.293Z,24.70
2018-03-24T12:16:10.866Z,28.03
2018-03-24T12:18:38.407Z,22.60
2018-03-24T12:21:05.863Z,23.47
2018-03-24T12:23:33.317Z,27.17
2018-03-24T12:26:00.819Z,23.33
2018-03-24T12:28:28.315Z,21.57
2018-03-24T12:30:55.763Z,21.43
2018-03-24T12:33:23.246Z,20.13
2018-03-24T12:35:50.702Z,22.23
2018-03-24T12:38:18.347Z,21.20
2018-03-24T12:40:45.812Z,22.03
2018-03-24T12:43:13.283Z,22.67
2018-03-24T12:45:40.777Z,29.03
2018-03-24T12:48:08.236Z,22.97
2018-03-24T12:50:35.736Z,23.13
2018-03-24T12:53:03.245Z,23.67
2018-03-24T12:55:30.752Z,28.47
2018-03-24T12:57:58.393Z,20.73
2018-03-24T13:00:25.982Z,21.53
2018-03-24T13:02:53.443Z,23.30
2018-03-24T13:05:20.969Z,23.53
2018-03-24T13:07:49.180Z,26.23
2018-03-24T13:10:18.309Z,22.73
2018-03-24T13:12:45.783Z,22.60
2018-03-24T13:15:13.279Z,22.47
2018-03-24T13:17:40.764Z,25.73
2018-03-24T13:20:08.228Z,22.10
2018-03-24T13:22:35.764Z,22.27
2018-03-24T13:25:03.264Z,24.67
2018-03-24T13:27:30.781Z,26.33
2018-03-24T13:29:58.268Z,23.73
2018-03-24T13:32:25.799Z,23.03
2018-03-24T13:34:53.252Z,24.57
2018-03-24T13:37:20.712Z,26.50
2018-03-24T13:39:48.191Z,24.27
2018-03-24T13:42:15.657Z,30.30
2018-03-24T13:44:43.158Z,24.83
2018-03-24T13:47:10.666Z,27.53
2018-03-24T13:49:38.133Z,26.67
2018-03-24T13:52:06.876Z,25.50
2018-03-24T13:54:34.403Z,25.53
2018-03-24T13:57:02.006Z,20.87
2018-03-24T13:59:29.468Z,24.97
2018-03-24T14:01:56.945Z,25.13
2018-03-24T14:04:24.407Z,26.30
2018-03-24T14:06:51.863Z,26.77
2018-03-24T14:09:19.347Z,27.73
2018-03-24T14:11:46.867Z,27.60
2018-03-24T14:14:14.307Z,28.27
2018-03-24T14:16:41.799Z,26.27
2018-03-24T14:19:09.279Z,26.87
2018-03-24T14:21:36.755Z,29.70
2018-03-24T14:24:04.216Z,27.93
2018-03-24T14:26:31.689Z,26.30
2018-03-24T14:28:59.208Z,31.70
2018-03-24T14:31:26.707Z,28.37
2018-03-24T14:33:54.180Z,33.40
2018-03-24T14:36:21.658Z,28.93
2018-03-24T14:38:49.128Z,30.03
2018-03-24T14:41:16.648Z,31.60
2018-03-24T14:43:44.147Z,33.93
2018-03-24T14:46:11.672Z,33.53
2018-03-24T14:48:39.164Z,31.30
2018-03-24T14:51:07.447Z,32.73
2018-03-24T14:53:34.952Z,30.17
2018-03-24T14:56:02.435Z,28.67
2018-03-24T14:58:29.926Z,31.23
2018-03-24T15:00:57.444Z,29.70
2018-03-24T15:03:24.939Z,28.70
2018-03-24T15:05:52.406Z,28.67
2018-03-24T15:08:20.704Z,27.40
2018-03-24T15:10:48.272Z,30.50
2018-03-24T15:13:15.761Z,29.60
2018-03-24T15:15:43.234Z,28.90
2018-03-24T15:18:10.702Z,51.67
2018-03-24T15:20:38.411Z,31.50
2018-03-24T15:23:05.885Z,35.97
2018-03-24T15:25:33.349Z,30.40
2018-03-24T15:28:00.836Z,30.13
2018-03-24T15:30:40.128Z,34.37
2018-03-24T15:33:19.440Z,33.80
2018-03-24T15:35:58.720Z,33.07
2018-03-24T15:38:26.228Z,30.97
2018-03-24T15:40:53.720Z,31.93
2018-03-24T15:43:21.188Z,36.20
2018-03-24T15:45:48.655Z,34.33
2018-03-24T15:48:16.131Z,35.53
2018-03-24T15:50:43.593Z,45.63
2018-03-24T15:53:11.058Z,37.43
2018-03-24T15:55:38.597Z,35.57
2018-03-24T15:58:06.092Z,36.90
2018-03-24T16:00:34.510Z,40.70
2018-03-24T16:03:02.010Z,36.83
2018-03-24T16:05:29.566Z,36.97
2018-03-24T16:07:57.123Z,39.50
2018-03-24T16:10:24.802Z,33.97
2018-03-24T16:12:52.304Z,40.10
2018-03-24T16:15:19.813Z,32.43
2018-03-24T16:17:47.303Z,31.93
2018-03-24T16:20:14.862Z,39.63
2018-03-24T16:22:42.345Z,41.73
2018-03-24T16:25:09.797Z,39.83
2018-03-24T16:27:37.275Z,33.40
2018-03-24T16:30:04.783Z,30.83
2018-03-24T16:32:32.248Z,36.33
2018-03-24T16:34:59.734Z,34.07
2018-03-24T16:37:27.199Z,28.67
2018-03-24T16:39:55.327Z,32.10
2018-03-24T16:42:22.847Z,32.90
2018-03-24T16:44:50.302Z,29.47
2018-03-24T16:47:18.984Z,35.53
2018-03-24T16:49:46.568Z,38.30
2018-03-24T16:52:14.046Z,35.17
2018-03-24T16:54:41.603Z,35.90
2018-03-24T16:57:09.121Z,38.37
2018-03-24T16:59:36.610Z,37.47
2018-03-24T17:02:04.141Z,35.03
2018-03-24T17:04:31.647Z,37.93
2018-03-24T17:06:59.188Z,32.17
2018-03-24T17:09:26.835Z,38.77
2018-03-24T17:11:54.349Z,32.93
2018-03-24T17:14:21.871Z,34.53
2018-03-24T17:16:49.372Z,35.77
2018-03-24T17:19:16.966Z,41.40
2018-03-24T17:21:44.460Z,36.70
2018-03-24T17:24:11.957Z,35.80
2018-03-24T17:26:39.536Z,33.77
2018-03-24T17:29:08.172Z,33.90
2018-03-24T17:31:35.800Z,38.70
2018-03-24T17:34:03.329Z,32.23
2018-03-24T17:36:30.864Z,33.30
2018-03-24T17:38:58.391Z,34.37
2018-03-24T17:41:25.865Z,39.20
2018-03-24T17:43:53.348Z,39.17
2018-03-24T17:46:20.824Z,39.67
2018-03-24T17:48:48.363Z,32.97
2018-03-24T17:51:15.908Z,36.90
2018-03-24T17:53:43.374Z,32.40
2018-03-24T17:56:10.892Z,36.27
2018-03-24T17:58:38.367Z,36.97
2018-03-24T18:01:05.879Z,41.30
2018-03-24T18:03:33.404Z,40.70
2018-03-24T18:06:00.922Z,36.77
2018-03-24T18:08:28.390Z,33.97
2018-03-24T18:10:55.882Z,36.13
2018-03-24T18:13:23.883Z,37.20
2018-03-24T18:15:51.345Z,52.83
2018-03-24T18:18:18.849Z,45.30
2018-03-24T18:20:46.353Z,42.23
2018-03-24T18:23:13.863Z,36.53
2018-03-24T18:25:41.443Z,51.23
2018-03-24T18:28:09.110Z,38.13
2018-03-24T18:30:36.884Z,33.70
2018-03-24T18:33:04.415Z,35.30
2018-03-24T18:35:31.330Z,35.03
2018-03-24T18:37:58.972Z,35.30
2018-03-24T18:40:26.753Z,34.20
2018-03-24T18:42:54.287Z,29.97
2018-03-24T18:45:21.796Z,41.67
2018-03-24T18:47:49.312Z,34.40
2018-03-24T18:50:16.881Z,30.87
2018-03-24T18:52:44.992Z,32.97
2018-03-24T18:55:12.624Z,28.10
2018-03-24T18:57:40.116Z,33.73
2018-03-24T19:00:07.765Z,27.17
2018-03-24T19:02:35.582Z,35.07
2018-03-24T19:05:03.299Z,28.70
2018-03-24T19:07:30.767Z,31.93
2018-03-24T19:09:58.498Z,34.43
2018-03-24T19:12:26.061Z,34.53
2018-03-24T19:14:53.575Z,31.90
2018-03-24T19:17:21.064Z,34.30
2018-03-24T19:19:48.549Z,30.93
2018-03-24T19:22:16.112Z,29.57
2018-03-24T19:24:43.688Z,40.63
2018-03-24T19:27:11.169Z,32.27
2018-03-24T19:29:38.650Z,33.13
2018-03-24T19:32:06.112Z,43.53
2018-03-24T19:34:33.903Z,38.00
2018-03-24T19:37:01.438Z,39.40
2018-03-24T19:39:29.111Z,38.60
2018-03-24T19:41:56.817Z,36.40
2018-03-24T19:44:24.327Z,36.83
2018-03-24T19:46:51.800Z,37.33
2018-03-24T19:49:19.312Z,40.33
2018-03-24T19:51:46.784Z,35.83
2018-03-24T19:54:14.505Z,38.07
2018-03-24T19:56:42.289Z,45.80
2018-03-24T19:59:09.917Z,39.47
2018-03-24T20:01:37.421Z,42.40
2018-03-24T20:04:05.192Z,42.20
2018-03-24T20:06:32.725Z,37.17
2018-03-24T20:09:00.271Z,36.23
2018-03-24T20:11:28.069Z,42.53
2018-03-24T20:13:55.920Z,42.53
2018-03-24T20:16:23.674Z,40.90
2018-03-24T20:18:51.464Z,46.73
2018-03-24T20:21:19.230Z,48.67
2018-03-24T20:23:46.996Z,44.87
2018-03-24T20:26:14.530Z,48.20
2018-03-24T20:28:42.034Z,42.43
2018-03-24T20:31:09.672Z,43.43
2018-03-24T20:33:38.129Z,43.37
2018-03-24T20:36:05.867Z,49.47
2018-03-24T20:38:33.484Z,43.23
2018-03-24T20:41:00.996Z,44.17
2018-03-24T20:43:29.741Z,48.47
2018-03-24T20:45:57.284Z,45.23
2018-03-24T20:48:24.732Z,43.73
2018-03-24T20:50:52.198Z,45.90
2018-03-24T20:53:19.695Z,44.63
2018-03-24T20:55:47.311Z,47.10
2018-03-24T20:58:15.034Z,47.17
2018-03-24T21:00:42.674Z,46.17
2018-03-24T21:03:10.260Z,47.30
2018-03-24T21:05:37.872Z,44.07
2018-03-24T21:08:05.483Z,51.67
2018-03-24T21:10:33.153Z,44.70
2018-03-24T21:13:00.834Z,45.93
2018-03-24T21:15:28.426Z,44.73
2018-03-24T21:17:56.088Z,50.57
2018-03-24T21:20:24.016Z,46.03
2018-03-24T21:22:51.822Z,49.00
2018-03-24T21:25:19.515Z,46.13
2018-03-24T21:27:48.289Z,53.30
2018-03-24T21:30:16.020Z,45.10
2018-03-24T21:32:43.690Z,48.00
2018-03-24T21:35:11.425Z,50.17
2018-03-24T21:37:39.061Z,49.60
2018-03-24T21:40:06.638Z,50.53
2018-03-24T21:42:34.198Z,49.20
2018-03-24T21:45:01.730Z,55.17
2018-03-24T21:47:29.294Z,49.13
2018-03-24T21:49:57.049Z,46.00
2018-03-24T21:52:24.594Z,50.93
2018-03-24T21:54:52.228Z,52.62
2018-03-24T21:57:19.784Z,48.37
2018-03-24T21:59:47.293Z,48.90
2018-03-24T22:02:14.770Z,51.30
2018-03-24T22:04:42.268Z,46.10
2018-03-24T22:07:09.741Z,48.57
2018-03-24T22:09:37.276Z,48.70
2018-03-24T22:12:04.749Z,49.83
2018-03-24T22:14:32.192Z,55.00
2018-03-24T22:17:01.154Z,50.38
2018-03-24T22:19:28.624Z,52.92
2018-03-24T22:21:56.155Z,53.38
2018-03-24T22:24:23.629Z,51.00
2018-03-24T22:26:51.138Z,59.28
2018-03-24T22:29:18.660Z,54.42
2018-03-24T22:31:46.160Z,53.00
2018-03-24T22:34:13.667Z,51.08
2018-03-24T22:36:41.213Z,54.67
2018-03-24T22:39:08.749Z,57.75
2018-03-24T22:41:36.245Z,55.15
2018-03-24T22:44:03.729Z,51.90
2018-03-24T22:46:31.190Z,54.67
2018-03-24T22:48:58.667Z,58.97
2018-03-24T22:51:26.285Z,52.20
2018-03-24T22:53:53.783Z,55.10
2018-03-24T22:56:21.290Z,58.58
2018-03-24T22:58:48.754Z,59.58
2018-03-24T23:01:22.252Z,53.92
2018-03-24T23:03:49.723Z,50.10
2018-03-24T23:06:17.199Z,53.58
2018-03-24T23:08:44.741Z,56.80
2018-03-24T23:11:12.165Z,56.25
2018-03-24T23:13:39.655Z,52.38
2018-03-24T23:16:07.185Z,55.55
2018-03-24T23:18:34.659Z,50.83
2018-03-24T23:21:02.120Z,54.95
2018-03-24T23:23:29.583Z,59.95
2018-03-24T23:25:57.159Z,57.92
2018-03-24T23:28:25.094Z,53.85
2018-03-24T23:30:55.527Z,53.40
2018-03-24T23:33:23.155Z,59.30
2018-03-24T23:35:50.639Z,54.92
2018-03-24T23:38:18.090Z,50.03
2018-03-24T23:40:45.777Z,49.92
2018-03-24T23:43:13.249Z,50.90
2018-03-24T23:45:40.773Z,49.88
2018-03-24T23:48:08.257Z,52.62
2018-03-24T23:50:35.735Z,53.58
2018-03-24T23:53:03.200Z,49.47
2018-03-24T23:55:30.653Z,50.92
2018-03-24T23:57:58.151Z,50.50
